Time;durP1;ratioP1;P1;durP2;ratioP2;P2;SDS_P1;SDS_P2;PMS_P1;PMS_P2;Temp;Humidity;BMP_temperature;BMP_pressure;BME280_temperature;BME280_humidity;BME280_pressure;Samples;Min_cycle;Max_cycle;Signal;HPM_P1;HPM_P2
2021/04/04 00:00:47;;;;;;;12.00;7.38;;;;;;;;;;5033613;28;20038;-64
2021/04/04 00:03:13;;;;;;;13.60;6.75;;;;;;;;;;5033965;28;20033;-68
2021/04/04 00:05:39;;;;;;;14.85;7.20;;;;;;;;;;5033729;28;20107;-66
2021/04/04 00:08:05;;;;;;;13.07;7.18;;;;;;;;;;5033966;28;20021;-67
2021/04/04 00:10:31;;;;;;;11.63;6.70;;;;;;;;;;5033645;28;20044;-68
2021/04/04 00:12:57;;;;;;;11.98;6.93;;;;;;;;;;5033844;28;20099;-68
2021/04/04 00:15:23;;;;;;;10.05;6.47;;;;;;;;;;5032153;28;20037;-69
2021/04/04 00:17:49;;;;;;;12.00;6.95;;;;;;;;;;5033879;28;20033;-68
2021/04/04 00:20:16;;;;;;;11.63;6.88;;;;;;;;;;5033509;28;20026;-68
2021/04/04 00:22:43;;;;;;;11.32;6.65;;;;;;;;;;5033467;28;20025;-64
2021/04/04 00:25:11;;;;;;;11.07;6.90;;;;;;;;;;5033419;28;20437;-68
2021/04/04 00:27:37;;;;;;;13.38;6.75;;;;;;;;;;5033635;28;20028;-69
2021/04/04 00:30:07;;;;;;;12.95;6.47;;;;;;;;;;5033525;28;20060;-70
2021/04/04 00:32:33;;;;;;;10.43;6.32;;;;;;;;;;5033315;28;20072;-70
2021/04/04 00:35:00;;;;;;;11.45;5.97;;;;;;;;;;5033102;28;20469;-69
2021/04/04 00:37:26;;;;;;;10.23;6.30;;;;;;;;;;5033316;28;20021;-67
2021/04/04 00:39:52;;;;;;;11.10;5.93;;;;;;;;;;5033109;28;20494;-69
2021/04/04 00:42:18;;;;;;;10.13;6.10;;;;;;;;;;5033229;28;20017;-69
2021/04/04 00:44:44;;;;;;;9.93;6.40;;;;;;;;;;5032723;28;20034;-69
2021/04/04 00:47:10;;;;;;;10.57;5.88;;;;;;;;;;5032751;28;20037;-62
2021/04/04 00:49:36;;;;;;;9.50;6.47;;;;;;;;;;5033124;28;20022;-68
2021/04/04 00:52:02;;;;;;;13.85;6.53;;;;;;;;;;5033104;28;20033;-68
2021/04/04 00:54:28;;;;;;;11.88;6.50;;;;;;;;;;5031510;28;20401;-69
2021/04/04 00:56:54;;;;;;;11.57;6.18;;;;;;;;;;5033021;28;20103;-70
2021/04/04 00:59:20;;;;;;;12.90;6.93;;;;;;;;;;5032865;28;20029;-69
2021/04/04 01:01:47;;;;;;;13.10;6.80;;;;;;;;;;5032808;28;20021;-59
2021/04/04 01:04:13;;;;;;;10.80;6.32;;;;;;;;;;5032877;28;20029;-64
2021/04/04 01:06:39;;;;;;;10.30;6.60;;;;;;;;;;5032626;28;20041;-67
2021/04/04 01:09:05;;;;;;;10.60;6.18;;;;;;;;;;5032408;28;20018;-69
2021/04/04 01:11:38;;;;;;;10.77;6.47;;;;;;;;;;5033562;28;20033;-69
2021/04/04 01:14:13;;;;;;;9.70;6.45;;;;;;;;;;5034303;28;20087;-63
2021/04/04 01:16:40;;;;;;;10.88;6.07;;;;;;;;;;5033183;28;20104;-62
2021/04/04 01:19:11;;;;;;;12.82;6.60;;;;;;;;;;5032622;28;20072;-69
2021/04/04 01:22:04;;;;;;;13.13;6.25;;;;;;;;;;5032539;28;20030;-69
2021/04/04 01:24:42;;;;;;;9.98;6.50;;;;;;;;;;5032373;28;20457;-68
2021/04/04 01:27:16;;;;;;;10.27;6.70;;;;;;;;;;5032111;28;20033;-70
2021/04/04 01:29:42;;;;;;;11.57;6.70;;;;;;;;;;5032399;28;20037;-65
2021/04/04 01:32:09;;;;;;;11.82;6.80;;;;;;;;;;5032256;28;20021;-66
2021/04/04 01:34:36;;;;;;;9.30;6.35;;;;;;;;;;5032293;28;20021;-69
2021/04/04 01:37:04;;;;;;;10.07;5.97;;;;;;;;;;5032139;28;20021;-69
2021/04/04 01:39:32;;;;;;;9.98;6.10;;;;;;;;;;5032105;28;20380;-70
2021/04/04 01:41:59;;;;;;;9.57;6.03;;;;;;;;;;5031979;28;20030;-69
2021/04/04 01:44:25;;;;;;;9.10;5.90;;;;;;;;;;5031693;28;20040;-69
2021/04/04 01:46:53;;;;;;;9.35;5.80;;;;;;;;;;5031974;28;20041;-66
2021/04/04 01:49:20;;;;;;;10.32;6.40;;;;;;;;;;5031911;28;20100;-65
2021/04/04 01:51:47;;;;;;;8.80;5.63;;;;;;;;;;5031520;28;20114;-70
2021/04/04 01:54:14;;;;;;;9.32;6.32;;;;;;;;;;5032105;28;20028;-70
2021/04/04 01:56:40;;;;;;;12.10;6.38;;;;;;;;;;5031982;28;20060;-68
2021/04/04 01:59:07;;;;;;;11.23;5.95;;;;;;;;;;5031593;28;20096;-68
2021/04/04 02:01:34;;;;;;;10.02;6.03;;;;;;;;;;5031649;28;20052;-70
2021/04/04 02:04:01;;;;;;;10.10;6.43;;;;;;;;;;5031682;28;20101;-68
2021/04/04 02:06:27;;;;;;;11.77;6.38;;;;;;;;;;5031527;28;20120;-66
2021/04/04 02:08:54;;;;;;;8.38;5.57;;;;;;;;;;5031633;28;20026;-69
2021/04/04 02:11:22;;;;;;;10.18;6.07;;;;;;;;;;5031676;28;20122;-70
2021/04/04 02:13:49;;;;;;;11.10;5.90;;;;;;;;;;5031319;28;20067;-60
2021/04/04 02:16:16;;;;;;;10.52;6.25;;;;;;;;;;5031309;28;20033;-62
2021/04/04 02:18:45;;;;;;;10.20;6.32;;;;;;;;;;5031676;28;20041;-70
2021/04/04 02:21:12;;;;;;;9.65;5.50;;;;;;;;;;5031724;28;20030;-69
2021/04/04 02:23:39;;;;;;;10.48;5.70;;;;;;;;;;5031356;28;20075;-70
2021/04/04 02:26:05;;;;;;;8.57;5.90;;;;;;;;;;5029954;28;20132;-69
2021/04/04 02:28:31;;;;;;;8.35;5.40;;;;;;;;;;5030970;28;20029;-68
2021/04/04 02:30:57;;;;;;;9.50;5.30;;;;;;;;;;5031042;28;20044;-64
2021/04/04 02:33:25;;;;;;;9.43;5.68;;;;;;;;;;5031548;28;20032;-62
2021/04/04 02:35:57;;;;;;;10.95;5.68;;;;;;;;;;5031593;28;20056;-69
2021/04/04 02:38:27;;;;;;;8.60;5.37;;;;;;;;;;5031310;28;20469;-70
2021/04/04 02:40:54;;;;;;;9.05;5.55;;;;;;;;;;5031408;28;20026;-69
2021/04/04 02:43:23;;;;;;;10.20;5.90;;;;;;;;;;5031168;28;20039;-70
2021/04/04 02:45:50;;;;;;;8.68;5.53;;;;;;;;;;5030864;28;20060;-70
2021/04/04 02:48:18;;;;;;;10.10;5.88;;;;;;;;;;5031421;28;20029;-69
2021/04/04 02:50:46;;;;;;;7.82;5.13;;;;;;;;;;5031401;28;20100;-68
2021/04/04 02:53:12;;;;;;;9.25;5.57;;;;;;;;;;5030883;28;20034;-69
2021/04/04 02:55:39;;;;;;;10.27;5.82;;;;;;;;;;5030907;28;20481;-62
2021/04/04 02:58:06;;;;;;;8.65;5.35;;;;;;;;;;5030898;28;20060;-63
2021/04/04 03:00:33;;;;;;;9.27;5.53;;;;;;;;;;5030934;28;20542;-69
2021/04/04 03:03:01;;;;;;;8.00;5.38;;;;;;;;;;5034485;28;20049;-69
2021/04/04 03:05:28;;;;;;;10.65;5.57;;;;;;;;;;5035033;28;20500;-69
2021/04/04 03:07:55;;;;;;;8.40;5.28;;;;;;;;;;5034911;28;20051;-69
2021/04/04 03:10:21;;;;;;;9.75;5.97;;;;;;;;;;5034964;28;20404;-68
2021/04/04 03:12:48;;;;;;;10.63;5.93;;;;;;;;;;5034997;28;20056;-68
2021/04/04 03:15:15;;;;;;;10.00;5.32;;;;;;;;;;5034542;28;20042;-69
2021/04/04 03:17:42;;;;;;;10.50;5.90;;;;;;;;;;5034796;28;20028;-70
2021/04/04 03:20:09;;;;;;;10.15;5.70;;;;;;;;;;5034961;28;20104;-62
2021/04/04 03:22:37;;;;;;;8.98;5.68;;;;;;;;;;5034779;28;20480;-69
2021/04/04 03:25:04;;;;;;;9.38;6.00;;;;;;;;;;5033279;28;20037;-70
2021/04/04 03:27:31;;;;;;;11.98;5.85;;;;;;;;;;5034621;28;20030;-69
2021/04/04 03:29:57;;;;;;;9.52;5.63;;;;;;;;;;5034567;28;20022;-60
2021/04/04 03:32:24;;;;;;;9.05;5.32;;;;;;;;;;5034498;28;20481;-70
2021/04/04 03:34:51;;;;;;;10.60;5.35;;;;;;;;;;5034617;28;20037;-70
2021/04/04 03:37:17;;;;;;;8.25;5.07;;;;;;;;;;5034342;28;20107;-71
2021/04/04 03:39:43;;;;;;;9.15;5.43;;;;;;;;;;5034585;28;20041;-69
2021/04/04 03:42:09;;;;;;;8.00;5.53;;;;;;;;;;5034361;28;20021;-69
2021/04/04 03:44:39;;;;;;;9.00;5.45;;;;;;;;;;5034223;28;20033;-70
2021/04/04 03:47:05;;;;;;;7.22;5.22;;;;;;;;;;5034378;28;20477;-69
2021/04/04 03:49:33;;;;;;;11.52;5.13;;;;;;;;;;5034372;28;20029;-69
2021/04/04 03:52:00;;;;;;;10.32;5.60;;;;;;;;;;5034325;28;20060;-59
2021/04/04 03:54:27;;;;;;;7.00;4.90;;;;;;;;;;5034051;28;20481;-69
2021/04/04 03:56:54;;;;;;;7.80;5.40;;;;;;;;;;5034280;28;20374;-70
2021/04/04 03:59:21;;;;;;;9.77;5.50;;;;;;;;;;5034156;28;20021;-69
2021/04/04 04:01:48;;;;;;;9.35;4.97;;;;;;;;;;5032358;28;20072;-66
2021/04/04 04:04:15;;;;;;;8.30;5.35;;;;;;;;;;5034191;28;20488;-59
2021/04/04 04:06:45;;;;;;;8.35;5.43;;;;;;;;;;5033904;28;20073;-69
2021/04/04 04:09:15;;;;;;;7.90;5.50;;;;;;;;;;5033678;28;20060;-69
2021/04/04 04:11:42;;;;;;;9.55;5.60;;;;;;;;;;5033904;28;20026;-68
2021/04/04 04:14:10;;;;;;;7.90;5.40;;;;;;;;;;5032705;28;20028;-61
2021/04/04 04:16:36;;;;;;;9.68;5.28;;;;;;;;;;5033870;28;20026;-63
2021/04/04 04:19:03;;;;;;;9.25;5.68;;;;;;;;;;5033784;28;20381;-62
2021/04/04 04:21:29;;;;;;;9.90;6.28;;;;;;;;;;5033753;28;20022;-69
2021/04/04 04:23:56;;;;;;;8.57;5.50;;;;;;;;;;5033520;28;20381;-68
2021/04/04 04:26:23;;;;;;;9.32;5.68;;;;;;;;;;5033404;28;20493;-68
2021/04/04 04:28:49;;;;;;;12.23;5.78;;;;;;;;;;5033687;28;20539;-69
2021/04/04 04:31:22;;;;;;;9.18;5.00;;;;;;;;;;5033489;28;20030;-60
2021/04/04 04:33:50;;;;;;;8.90;5.32;;;;;;;;;;5033452;28;20033;-62
2021/04/04 04:36:16;;;;;;;8.88;5.40;;;;;;;;;;5033665;28;20040;-69
2021/04/04 04:38:43;;;;;;;9.70;5.82;;;;;;;;;;5033511;28;20497;-70
2021/04/04 04:41:10;;;;;;;10.90;5.75;;;;;;;;;;5033233;28;20473;-70
2021/04/04 04:43:40;;;;;;;12.80;6.07;;;;;;;;;;5033200;28;20029;-69
2021/04/04 04:46:07;;;;;;;11.60;6.03;;;;;;;;;;5032747;28;20058;-67
2021/04/04 04:48:34;;;;;;;9.18;5.93;;;;;;;;;;5033308;28;20026;-69
2021/04/04 04:51:00;;;;;;;9.65;5.95;;;;;;;;;;5033207;28;20025;-70
2021/04/04 04:53:27;;;;;;;8.25;5.60;;;;;;;;;;5032983;28;20022;-69
2021/04/04 04:55:53;;;;;;;9.98;6.30;;;;;;;;;;5033194;28;20037;-69
2021/04/04 04:58:19;;;;;;;9.40;6.15;;;;;;;;;;5033091;28;20527;-67
2021/04/04 05:00:49;;;;;;;10.52;6.47;;;;;;;;;;5033004;28;20380;-68
2021/04/04 05:03:16;;;;;;;10.60;6.22;;;;;;;;;;5033012;28;20030;-66
2021/04/04 05:05:42;;;;;;;11.57;6.10;;;;;;;;;;5032572;28;20124;-69
2021/04/04 05:08:08;;;;;;;10.23;6.35;;;;;;;;;;5032968;28;20037;-64
2021/04/04 05:10:35;;;;;;;11.88;7.70;;;;;;;;;;5032862;28;20029;-61
2021/04/04 05:13:03;;;;;;;12.05;6.68;;;;;;;;;;5032614;28;20035;-69
2021/04/04 05:15:29;;;;;;;11.07;6.43;;;;;;;;;;5032697;28;20072;-67
2021/04/04 05:17:55;;;;;;;9.93;6.72;;;;;;;;;;5032556;28;20032;-70
2021/04/04 05:20:21;;;;;;;12.10;6.68;;;;;;;;;;5032703;28;20481;-68
2021/04/04 05:22:48;;;;;;;10.60;6.40;;;;;;;;;;5032420;28;20037;-59
2021/04/04 05:25:14;;;;;;;10.18;6.38;;;;;;;;;;5030006;28;20389;-60
2021/04/04 05:27:40;;;;;;;10.77;6.88;;;;;;;;;;5032401;28;20162;-70
2021/04/04 05:30:10;;;;;;;11.00;7.10;;;;;;;;;;5032498;28;20025;-61
2021/04/04 05:32:43;;;;;;;10.38;6.97;;;;;;;;;;5032318;28;20118;-62
2021/04/04 05:35:13;;;;;;;12.88;7.70;;;;;;;;;;5032310;28;20029;-68
2021/04/04 05:37:41;;;;;;;11.45;7.55;;;;;;;;;;5032154;28;20029;-69
2021/04/04 05:40:08;;;;;;;10.32;6.63;;;;;;;;;;5032291;28;20029;-69
2021/04/04 05:42:35;;;;;;;14.23;8.02;;;;;;;;;;5032110;28;20026;-70
2021/04/04 05:45:02;;;;;;;13.68;8.55;;;;;;;;;;5031880;28;20045;-70
2021/04/04 05:47:39;;;;;;;12.38;7.90;;;;;;;;;;5031928;28;20087;-59
2021/04/04 05:50:07;;;;;;;12.52;8.00;;;;;;;;;;5032059;28;20025;-65
2021/04/04 05:52:42;;;;;;;14.13;8.52;;;;;;;;;;5031885;28;20469;-70
2021/04/04 05:55:27;;;;;;;13.68;8.45;;;;;;;;;;5032078;28;20029;-62
2021/04/04 05:57:53;;;;;;;12.30;8.38;;;;;;;;;;5031973;28;20037;-70
2021/04/04 06:00:20;;;;;;;12.93;7.68;;;;;;;;;;5032143;28;20473;-67
2021/04/04 06:02:52;;;;;;;14.95;9.18;;;;;;;;;;5031655;28;20066;-63
2021/04/04 06:05:24;;;;;;;12.93;8.75;;;;;;;;;;5031708;28;20026;-69
2021/04/04 06:07:50;;;;;;;;;;;;;;;;;;5032037;28;20485;-68
2021/04/04 06:10:35;;;;;;;12.73;8.25;;;;;;;;;;5031855;28;19912;-66
2021/04/04 06:13:19;;;;;;;12.95;8.60;;;;;;;;;;5031254;28;20028;-61
2021/04/04 06:16:01;;;;;;;15.68;8.77;;;;;;;;;;5031239;28;20032;-68
2021/04/04 06:18:44;;;;;;;12.95;7.55;;;;;;;;;;5031348;28;20041;-69
2021/04/04 06:21:09;;;;;;;;;;;;;;;;;;5029484;28;20048;-66
2021/04/04 06:23:55;;;;;;;15.50;8.25;;;;;;;;;;5031143;28;20368;-67
2021/04/04 06:27:00;;;;;;;11.23;7.65;;;;;;;;;;5031125;28;20116;-63
2021/04/04 06:29:52;;;;;;;15.15;8.20;;;;;;;;;;5008228;28;20087;-66
2021/04/04 06:32:24;;;;;;;11.73;8.13;;;;;;;;;;4986503;28;20046;-63
2021/04/04 06:34:55;;;;;;;14.40;8.60;;;;;;;;;;4988848;28;20039;-64
2021/04/04 06:37:39;;;;;;;15.63;8.85;;;;;;;;;;4988748;28;20033;-61
2021/04/04 06:40:09;;;;;;;15.20;9.48;;;;;;;;;;4989244;28;20517;-65
2021/04/04 06:42:53;;;;;;;17.40;10.63;;;;;;;;;;4988544;28;20085;-61
2021/04/04 06:45:19;;;;;;;14.82;10.65;;;;;;;;;;4988856;28;20108;-58
2021/04/04 06:47:57;;;;;;;15.75;10.70;;;;;;;;;;4989014;28;20073;-59
2021/04/04 06:50:24;;;;;;;15.70;10.75;;;;;;;;;;4988239;28;20123;-63
2021/04/04 06:53:09;;;;;;;14.95;10.60;;;;;;;;;;4988911;28;20156;-64
2021/04/04 06:55:47;;;;;;;20.05;12.20;;;;;;;;;;4989052;28;20125;-60
2021/04/04 06:58:19;;;;;;;18.00;11.23;;;;;;;;;;4988759;28;20517;-59
2021/04/04 07:00:45;;;;;;;16.05;11.05;;;;;;;;;;5004289;28;20116;-61
2021/04/04 07:03:18;;;;;;;20.27;12.30;;;;;;;;;;5010786;28;20060;-66
2021/04/04 07:05:48;;;;;;;19.70;12.60;;;;;;;;;;5018307;28;20029;-59
2021/04/04 07:08:33;;;;;;;20.70;12.55;;;;;;;;;;5029436;28;20036;-59
2021/04/04 07:11:17;;;;;;;18.75;12.50;;;;;;;;;;5029577;28;20097;-68
2021/04/04 07:14:02;;;;;;;18.88;11.85;;;;;;;;;;5030419;28;20095;-71
2021/04/04 07:16:37;;;;;;;19.88;12.57;;;;;;;;;;5029568;28;20037;-61
2021/04/04 07:19:03;;;;;;;18.85;11.73;;;;;;;;;;5030104;28;20380;-72
2021/04/04 07:21:38;;;;;;;13.38;7.93;;;;;;;;;;5030812;28;20492;-73
2021/04/04 07:24:23;;;;;;;14.35;10.00;;;;;;;;;;5029294;28;20087;-62
2021/04/04 07:26:58;;;;;;;10.85;6.63;;;;;;;;;;5029332;28;20148;-65
2021/04/04 07:29:41;;;;;;;14.63;8.07;;;;;;;;;;5028090;28;20034;-63
2021/04/04 07:32:10;;;;;;;14.10;9.40;;;;;;;;;;5027623;28;20547;-65
2021/04/04 07:34:47;;;;;;;14.73;9.00;;;;;;;;;;5030029;28;20022;-68
2021/04/04 07:37:25;;;;;;;13.32;8.27;;;;;;;;;;5026796;28;20029;-66
2021/04/04 07:40:03;;;;;;;12.52;8.45;;;;;;;;;;5027740;28;20024;-67
2021/04/04 07:42:44;;;;;;;14.50;9.50;;;;;;;;;;5025808;28;20030;-67
2021/04/04 07:45:26;;;;;;;13.45;9.73;;;;;;;;;;5027157;28;20065;-64
2021/04/04 07:47:59;;;;;;;14.52;9.25;;;;;;;;;;5030430;28;20041;-66
2021/04/04 07:50:37;;;;;;;14.43;9.60;;;;;;;;;;5033989;28;20025;-63
2021/04/04 07:53:17;;;;;;;13.43;10.45;;;;;;;;;;5034201;28;20104;-63
2021/04/04 07:56:01;;;;;;;12.35;8.85;;;;;;;;;;5033716;28;20034;-65
2021/04/04 07:58:35;;;;;;;13.23;8.95;;;;;;;;;;5033825;28;20041;-62
2021/04/04 08:01:02;;;;;;;16.20;10.25;;;;;;;;;;5032814;28;20017;-62
2021/04/04 08:03:39;;;;;;;26.42;14.35;;;;;;;;;;5032553;28;20163;-64
2021/04/04 08:06:08;;;;;;;19.02;10.05;;;;;;;;;;5033493;28;20037;-64
2021/04/04 08:08:37;;;;;;;16.20;9.50;;;;;;;;;;5033522;28;20381;-72
2021/04/04 08:11:08;;;;;;;12.90;9.60;;;;;;;;;;5033333;28;20034;-63
2021/04/04 08:13:42;;;;;;;14.95;9.85;;;;;;;;;;5033489;28;20380;-69
2021/04/04 08:16:15;;;;;;;12.95;9.00;;;;;;;;;;5033365;28;20029;-65
2021/04/04 08:18:41;;;;;;;13.73;9.57;;;;;;;;;;5033529;28;20029;-71
2021/04/04 08:21:25;;;;;;;13.00;8.57;;;;;;;;;;5033624;28;20041;-68
2021/04/04 08:23:56;;;;;;;14.93;9.27;;;;;;;;;;5033252;28;20100;-67
2021/04/04 08:26:24;;;;;;;12.13;7.90;;;;;;;;;;5029333;28;20137;-65
2021/04/04 08:28:57;;;;;;;38.60;17.17;;;;;;;;;;5032040;28;20029;-64
2021/04/04 08:31:40;;;;;;;20.30;11.48;;;;;;;;;;5032465;28;20029;-68
2021/04/04 08:34:16;;;;;;;15.73;10.57;;;;;;;;;;5031856;28;20056;-69
2021/04/04 08:36:57;;;;;;;14.65;8.50;;;;;;;;;;5032407;28;20032;-67
2021/04/04 08:39:26;;;;;;;10.63;7.80;;;;;;;;;;5032776;28;20033;-69
2021/04/04 08:41:53;;;;;;;10.52;7.10;;;;;;;;;;5032856;28;20030;-68
2021/04/04 08:44:25;;;;;;;11.25;7.97;;;;;;;;;;5032393;28;20026;-70
2021/04/04 08:47:17;;;;;;;14.38;9.85;;;;;;;;;;5033092;28;20056;-69
2021/04/04 08:49:44;;;;;;;11.32;7.20;;;;;;;;;;5049434;28;20037;-70
2021/04/04 08:52:17;;;;;;;8.88;6.68;;;;;;;;;;5033069;28;20052;-68
2021/04/04 08:54:47;;;;;;;9.82;7.00;;;;;;;;;;5032509;28;20377;-66
2021/04/04 08:57:13;;;;;;;9.18;6.63;;;;;;;;;;5032861;28;20033;-65
2021/04/04 08:59:39;;;;;;;10.70;6.55;;;;;;;;;;5032685;28;20115;-67
2021/04/04 09:02:06;;;;;;;10.07;7.63;;;;;;;;;;5031715;28;20503;-63
2021/04/04 09:04:34;;;;;;;10.23;6.45;;;;;;;;;;5032144;28;20038;-67
2021/04/04 09:07:04;;;;;;;9.93;6.47;;;;;;;;;;5031932;28;20037;-62
2021/04/04 09:09:33;;;;;;;11.18;7.47;;;;;;;;;;5032635;28;20050;-64
2021/04/04 09:12:00;;;;;;;10.15;6.57;;;;;;;;;;5032466;28;20033;-64
2021/04/04 09:14:27;;;;;;;10.35;7.03;;;;;;;;;;5032531;28;20029;-65
2021/04/04 09:16:55;;;;;;;12.82;7.90;;;;;;;;;;5032572;28;20037;-65
2021/04/04 09:19:47;;;;;;;12.35;7.50;;;;;;;;;;5032309;28;20523;-66
2021/04/04 09:22:21;;;;;;;17.17;7.68;;;;;;;;;;5031348;28;20128;-63
2021/04/04 09:24:55;;;;;;;17.80;9.93;;;;;;;;;;5032276;28;20026;-62
2021/04/04 09:27:22;;;;;;;10.35;6.35;;;;;;;;;;5032638;28;20029;-64
2021/04/04 09:29:50;;;;;;;11.68;6.63;;;;;;;;;;5032182;28;20062;-62
2021/04/04 09:32:26;;;;;;;15.45;8.45;;;;;;;;;;5032149;28;20108;-63
2021/04/04 09:34:52;;;;;;;10.00;6.65;;;;;;;;;;5031635;28;20555;-64
2021/04/04 09:37:26;;;;;;;12.15;7.70;;;;;;;;;;5031844;28;20056;-65
2021/04/04 09:39:52;;;;;;;22.13;11.73;;;;;;;;;;5031862;28;20104;-62
2021/04/04 09:42:18;;;;;;;23.23;13.23;;;;;;;;;;5032044;28;20064;-65
2021/04/04 09:44:46;;;;;;;11.73;7.30;;;;;;;;;;5031447;28;20029;-65
2021/04/04 09:47:12;;;;;;;12.20;6.70;;;;;;;;;;5032130;28;20046;-64
2021/04/04 09:49:43;;;;;;;10.50;6.65;;;;;;;;;;5031463;28;20025;-67
2021/04/04 09:52:26;;;;;;;10.48;6.63;;;;;;;;;;5031447;28;20105;-63
2021/04/04 09:54:56;;;;;;;11.35;7.47;;;;;;;;;;5031634;28;20473;-68
2021/04/04 09:57:22;;;;;;;11.88;7.57;;;;;;;;;;5031557;28;20445;-67
2021/04/04 09:59:48;;;;;;;11.13;6.38;;;;;;;;;;5031556;28;20096;-66
2021/04/04 10:02:15;;;;;;;8.80;6.10;;;;;;;;;;5031649;28;20029;-67
2021/04/04 10:04:44;;;;;;;8.13;5.93;;;;;;;;;;5031393;28;20033;-67
2021/04/04 10:07:10;;;;;;;18.25;11.10;;;;;;;;;;5031227;28;20048;-66
2021/04/04 10:09:39;;;;;;;10.05;7.10;;;;;;;;;;5031607;28;20033;-66
2021/04/04 10:12:06;;;;;;;13.20;7.57;;;;;;;;;;5030748;28;20030;-66
2021/04/04 10:14:32;;;;;;;14.15;8.48;;;;;;;;;;5031316;28;20504;-65
2021/04/04 10:17:13;;;;;;;16.58;9.35;;;;;;;;;;5031110;28;20034;-67
2021/04/04 10:19:55;;;;;;;8.90;6.35;;;;;;;;;;5031107;28;20079;-68
2021/04/04 10:22:21;;;;;;;14.38;8.55;;;;;;;;;;5031332;28;20029;-67
2021/04/04 10:24:48;;;;;;;10.40;7.45;;;;;;;;;;5031328;28;20093;-65
2021/04/04 10:27:28;;;;;;;8.98;6.60;;;;;;;;;;5031117;28;20041;-63
2021/04/04 10:30:06;;;;;;;8.23;5.93;;;;;;;;;;5031145;28;20047;-63
2021/04/04 10:32:33;;;;;;;11.43;6.78;;;;;;;;;;5031076;28;20025;-66
2021/04/04 10:34:59;;;;;;;9.98;6.65;;;;;;;;;;5030851;28;20017;-66
2021/04/04 10:37:25;;;;;;;9.93;6.65;;;;;;;;;;5030962;28;20029;-61
2021/04/04 10:40:02;;;;;;;8.40;5.93;;;;;;;;;;5031147;28;20081;-62
2021/04/04 10:42:28;;;;;;;9.68;6.97;;;;;;;;;;5031005;28;20033;-64
2021/04/04 10:45:06;;;;;;;10.13;7.18;;;;;;;;;;5030643;28;20413;-61
2021/04/04 10:47:32;;;;;;;10.95;7.45;;;;;;;;;;5031074;28;20192;-65
2021/04/04 10:50:01;;;;;;;11.82;8.02;;;;;;;;;;5030932;28;20021;-65
2021/04/04 10:52:28;;;;;;;17.67;11.05;;;;;;;;;;5030595;28;20044;-61
2021/04/04 10:54:55;;;;;;;13.77;8.90;;;;;;;;;;5030788;28;20096;-66
2021/04/04 10:57:21;;;;;;;12.35;7.72;;;;;;;;;;5030037;28;20088;-65
2021/04/04 10:59:48;;;;;;;10.82;8.07;;;;;;;;;;5030871;28;20532;-63
2021/04/04 11:02:14;;;;;;;15.45;9.82;;;;;;;;;;5030687;28;20092;-62
2021/04/04 11:04:41;;;;;;;9.98;7.53;;;;;;;;;;5030541;28;20037;-64
2021/04/04 11:07:07;;;;;;;12.65;7.72;;;;;;;;;;5030354;28;20033;-66
2021/04/04 11:09:33;;;;;;;10.00;6.82;;;;;;;;;;5029794;28;20096;-66
2021/04/04 11:12:01;;;;;;;9.80;6.80;;;;;;;;;;5030529;28;20087;-67
2021/04/04 11:14:28;;;;;;;10.85;6.90;;;;;;;;;;5030542;28;20033;-67
2021/04/04 11:16:56;;;;;;;18.80;10.38;;;;;;;;;;5030660;28;20116;-65
2021/04/04 11:19:24;;;;;;;21.02;11.50;;;;;;;;;;5030623;28;20171;-63
2021/04/04 11:21:51;;;;;;;17.27;10.02;;;;;;;;;;5029927;28;20052;-66
2021/04/04 11:24:22;;;;;;;21.85;11.70;;;;;;;;;;5033034;28;20083;-66
2021/04/04 11:26:48;;;;;;;29.45;14.77;;;;;;;;;;5034421;28;20040;-66
2021/04/04 11:29:16;;;;;;;16.17;10.00;;;;;;;;;;5033020;28;20443;-67
2021/04/04 11:31:44;;;;;;;21.08;12.27;;;;;;;;;;5034462;28;20107;-66
2021/04/04 11:34:32;;;;;;;24.27;14.02;;;;;;;;;;5034340;28;20033;-66
2021/04/04 11:36:59;;;;;;;12.15;7.93;;;;;;;;;;5034169;28;20056;-66
2021/04/04 11:39:25;;;;;;;11.80;7.88;;;;;;;;;;5034362;28;20104;-66
2021/04/04 11:42:03;;;;;;;13.48;8.40;;;;;;;;;;5034241;28;20051;-65
2021/04/04 11:44:33;;;;;;;13.30;7.63;;;;;;;;;;5033936;28;20018;-64
2021/04/04 11:47:00;;;;;;;11.82;7.80;;;;;;;;;;5033934;28;20042;-66
2021/04/04 11:49:54;;;;;;;18.98;12.70;;;;;;;;;;5033981;28;20026;-67
2021/04/04 11:52:22;;;;;;;17.85;12.27;;;;;;;;;;5034160;28;20462;-67
2021/04/04 11:54:49;;;;;;;13.57;9.15;;;;;;;;;;5033859;28;20029;-67
2021/04/04 11:57:18;;;;;;;12.70;8.93;;;;;;;;;;5034125;28;20024;-67
2021/04/04 11:59:44;;;;;;;28.15;15.63;;;;;;;;;;5033835;28;20026;-67
2021/04/04 12:02:12;;;;;;;25.80;15.35;;;;;;;;;;5034106;28;20052;-66
2021/04/04 12:04:48;;;;;;;16.42;11.48;;;;;;;;;;5033961;28;20025;-67
2021/04/04 12:07:15;;;;;;;24.73;14.23;;;;;;;;;;5033789;28;20029;-66
2021/04/04 12:09:44;;;;;;;24.05;14.07;;;;;;;;;;5033947;28;20036;-67
2021/04/04 12:12:10;;;;;;;18.35;11.52;;;;;;;;;;5033575;28;20029;-67
2021/04/04 12:14:50;;;;;;;27.55;16.65;;;;;;;;;;5033260;28;20033;-68
2021/04/04 12:17:17;;;;;;;19.38;11.55;;;;;;;;;;5033571;28;20102;-67
2021/04/04 12:19:43;;;;;;;18.73;10.98;;;;;;;;;;5033383;28;20031;-66
2021/04/04 12:22:10;;;;;;;13.70;8.55;;;;;;;;;;5033715;28;20021;-66
2021/04/04 12:24:51;;;;;;;12.90;8.73;;;;;;;;;;5033505;28;20109;-66
2021/04/04 12:27:27;;;;;;;14.35;9.70;;;;;;;;;;5033131;28;20095;-67
2021/04/04 12:29:55;;;;;;;16.55;10.18;;;;;;;;;;5033277;28;20049;-67
2021/04/04 12:32:21;;;;;;;18.63;11.57;;;;;;;;;;5033186;28;20033;-66
2021/04/04 12:34:48;;;;;;;17.80;11.98;;;;;;;;;;5032688;28;20373;-67
2021/04/04 12:37:16;;;;;;;16.30;10.93;;;;;;;;;;5033384;28;20451;-67
2021/04/04 12:39:42;;;;;;;14.93;10.02;;;;;;;;;;5033093;28;20022;-65
2021/04/04 12:42:13;;;;;;;15.60;10.20;;;;;;;;;;5032894;28;20535;-68
2021/04/04 12:44:40;;;;;;;17.52;10.43;;;;;;;;;;5032799;28;20028;-65
2021/04/04 12:47:20;;;;;;;23.85;13.93;;;;;;;;;;5032951;28;20114;-62
2021/04/04 12:50:02;;;;;;;23.08;14.68;;;;;;;;;;5033012;28;20465;-67
2021/04/04 12:52:35;;;;;;;27.33;15.35;;;;;;;;;;5032825;28;20037;-66
2021/04/04 12:55:15;;;;;;;17.90;11.40;;;;;;;;;;5031930;28;20037;-64
2021/04/04 12:57:42;;;;;;;14.60;9.85;;;;;;;;;;5032074;28;20026;-63
2021/04/04 13:00:19;;;;;;;20.92;13.25;;;;;;;;;;5032776;28;20132;-63
2021/04/04 13:02:58;;;;;;;15.30;9.18;;;;;;;;;;5032543;28;20026;-63
2021/04/04 13:05:24;;;;;;;15.55;10.07;;;;;;;;;;5032080;28;20037;-64
2021/04/04 13:07:51;;;;;;;20.65;13.20;;;;;;;;;;5026579;28;20108;-63
2021/04/04 13:10:17;;;;;;;17.73;10.82;;;;;;;;;;5021904;28;20014;-63
2021/04/04 13:12:43;;;;;;;18.50;11.05;;;;;;;;;;5022844;28;20061;-62
2021/04/04 13:15:19;;;;;;;52.67;24.63;;;;;;;;;;5027826;28;20041;-66
2021/04/04 13:17:45;;;;;;;31.35;16.92;;;;;;;;;;5017793;28;20393;-65
2021/04/04 13:20:12;;;;;;;33.42;17.73;;;;;;;;;;5022395;28;20117;-66
2021/04/04 13:22:38;;;;;;;16.98;10.40;;;;;;;;;;5029335;28;20488;-66
2021/04/04 13:25:05;;;;;;;29.30;14.02;;;;;;;;;;5028220;28;20034;-66
2021/04/04 13:27:31;;;;;;;14.07;9.48;;;;;;;;;;5027680;28;20480;-69
2021/04/04 13:29:57;;;;;;;13.23;9.00;;;;;;;;;;5030874;28;20029;-61
2021/04/04 13:32:40;;;;;;;13.52;8.52;;;;;;;;;;5031376;28;20038;-66
2021/04/04 13:35:06;;;;;;;12.18;9.07;;;;;;;;;;5030784;28;20405;-67
2021/04/04 13:37:39;;;;;;;12.77;8.20;;;;;;;;;;5029084;28;20037;-65
2021/04/04 13:40:06;;;;;;;13.10;8.45;;;;;;;;;;5031838;28;20064;-66
2021/04/04 13:42:46;;;;;;;40.53;18.45;;;;;;;;;;5031443;28;20029;-67
2021/04/04 13:45:32;;;;;;;15.93;8.90;;;;;;;;;;5030078;28;20045;-66
2021/04/04 13:47:58;;;;;;;13.88;7.72;;;;;;;;;;5026431;28;20041;-66
2021/04/04 13:50:24;;;;;;;13.27;8.65;;;;;;;;;;5027361;28;20033;-67
2021/04/04 13:52:50;;;;;;;12.07;8.82;;;;;;;;;;5017776;28;20026;-67
2021/04/04 13:55:37;;;;;;;16.05;9.88;;;;;;;;;;5032784;28;20088;-67
2021/04/04 13:58:05;;;;;;;25.27;13.65;;;;;;;;;;5023819;28;20037;-63
2021/04/04 14:00:45;;;;;;;22.48;13.20;;;;;;;;;;5029225;28;20051;-66
2021/04/04 14:03:11;;;;;;;12.63;8.75;;;;;;;;;;5026886;28;20021;-67
2021/04/04 14:05:37;;;;;;;13.27;9.38;;;;;;;;;;5029625;28;20030;-68
2021/04/04 14:08:06;;;;;;;18.38;11.00;;;;;;;;;;5030363;28;20030;-66
2021/04/04 14:10:33;;;;;;;15.50;10.32;;;;;;;;;;5029107;28;20052;-69
2021/04/04 14:12:59;;;;;;;9.52;7.15;;;;;;;;;;5031086;28;20424;-69
2021/04/04 14:15:25;;;;;;;11.25;7.50;;;;;;;;;;5031070;28;20029;-70
2021/04/04 14:17:51;;;;;;;10.05;7.47;;;;;;;;;;5031852;28;20033;-68
2021/04/04 14:20:17;;;;;;;12.13;8.00;;;;;;;;;;5031154;28;20033;-62
2021/04/04 14:22:44;;;;;;;11.52;7.15;;;;;;;;;;5030716;28;20112;-67
2021/04/04 14:25:10;;;;;;;12.38;7.22;;;;;;;;;;5031179;28;20212;-70
2021/04/04 14:27:36;;;;;;;10.95;6.78;;;;;;;;;;5030730;28;20044;-70
2021/04/04 14:30:02;;;;;;;12.77;7.68;;;;;;;;;;5030876;28;20018;-63
2021/04/04 14:32:28;;;;;;;9.57;6.40;;;;;;;;;;5029113;28;20384;-68
2021/04/04 14:34:55;;;;;;;9.32;6.28;;;;;;;;;;5030688;28;20398;-68
2021/04/04 14:37:21;;;;;;;9.82;6.57;;;;;;;;;;5030176;28;20441;-70
2021/04/04 14:39:47;;;;;;;10.57;6.75;;;;;;;;;;5025889;28;20179;-70
2021/04/04 14:42:13;;;;;;;10.68;6.97;;;;;;;;;;5029558;28;20041;-67
2021/04/04 14:44:39;;;;;;;8.23;5.70;;;;;;;;;;5029263;28;20037;-62
2021/04/04 14:47:05;;;;;;;10.65;6.57;;;;;;;;;;5028431;28;20032;-69